AirNav   Pilot Hours Calculator
 
 1533 users online  

4J2 Berrien County Airport
Nashville, Georgia, USA

GOING TO NASHVILLE?


FAA INFORMATION EFFECTIVE 25 APRIL 2019

Location

FAA Identifier: 4J2
Lat/Long: 31-12-45.1605N / 083-13-30.9236W
31-12.752675N / 083-13.515393W
31.2125446 / -83.2252566
(estimated)
Elevation: 240.1 ft. / 73.2 m (surveyed)
Variation: 03W (1995)
From city: 1 mile E of NASHVILLE, GA
Time zone: UTC -4 (UTC -5 during Standard Time)
Zip code: 31639

Airport Operations

Airport use: Open to the public
Control tower: no
ARTCC: JACKSONVILLE CENTER
FSS: MACON FLIGHT SERVICE STATION
NOTAMs facility: MCN (NOTAM-D service available)
Attendance: UNATTENDED
Wind indicator: lighted
Segmented circle: yes
Lights: MIRL 10/28 PRESET LOW INTST DUSK-DAWN; TO INCREASE INTST ACTVT - CTAF. PAPI RWY 10 AND PAPI RWY 28 - CTAF.
Beacon: white-green (lighted land airport)
Operates sunset to sunrise.

Airport Communications

CTAF/UNICOM: 122.7
VALDOSTA APPROACH: 126.6 EAST OF VAD R-360 - R-180 RADI 132.375 WEST OF VAD R-360 RADIAL
VALDOSTA DEPARTURE: 126.6 EAST OF VAD R-360 - R-180 RADI 132.375 WEST OF VAD R-360 RADIAL
IC: 126.6 EAST OF VAD R-360 - R-180 RADI
WX AWOS-3PT at TMA (19 nm NW): 118.525 (229-386-8937)
  • APCH/DEP SVC PRVDD BY JACKSONVILLE ARTCC ON FREQS 133.7/399.6 (VALDOSTA RCAG) WHEN VALDOSTA APCH CTL CLSD.

Nearby radio navigation aids

VOR radial/distance  VOR name  Freq  Var
IFMr135/(18.7)TIFT MYERS VOR112.5001W
OTKr008/26.1VALDOSTA VOR/DME114.8002W
AYSr264/34.5WAYCROSS VORTAC110.2000E

 
NDB name  Hdg/Dist  Freq  Var  ID
COFFEE COUNTY239/19.339006WOWC --- .-- -.-.
FITZGERALD177/24.336205WSUR ... ..- .-.
HOMERVILLE298/25.120906WHOE .... --- .
PATON069/34.524505WGTP --. - .--.

Airport Services

Fuel available: A
Parking: tiedowns
Bottled oxygen: NONE
Bulk oxygen: NONE

Runway Information

Runway 10/28

Dimensions: 5002 x 75 ft. / 1525 x 23 m
Surface: asphalt, in good condition
Weight bearing capacity: 
Single wheel: 23.0
Runway edge lights: medium intensity
RUNWAY 10  RUNWAY 28
Latitude: 31-12.775823N31-12.729527N
Longitude: 083-13.994645W083-13.036140W
Elevation: 238.2 ft.232.9 ft.
Traffic pattern: leftleft
Runway heading: 097 magnetic, 094 true277 magnetic, 274 true
Markings: nonprecision, in good conditionnonprecision, in good condition
Visual slope indicator: 2-light PAPI on left (3.60 degrees glide path)2-light PAPI on left (4.00 degrees glide path)
Runway end identifier lights: yesyes
Touchdown point: yes, no lightsyes, no lights
Obstructions: 40 ft. trees, 1560 ft. from runway, 400 ft. left of centerline, 34:1 slope to clear8 ft. trees, 280 ft. from runway, 170 ft. right of centerline, 10:1 slope to clear

Airport Ownership and Management from official FAA records

Ownership: Publicly-owned
Owner: BERRIEN COUNTY
201 N DAVIS ST, ROOM 198
NASHVILLE, GA 31639
Phone 229-686-5421
Manager: BRENDA FERRELL
201 N DAVIS ST, ROOM 198
NASHVILLE, GA 31639
Phone 229-686-5421

Airport Operational Statistics

Aircraft based on the field: 11
Single engine airplanes: 8
Jet airplanes: 1
Ultralights: 2
    
Aircraft operations: avg 77/week *
75% local general aviation
25% transient general aviation
* for 12-month period ending 31 December 2017

Additional Remarks

GCO AVBL ON FREQ 121.725 THRU FLT SVCS.

Instrument Procedures

NOTE: All procedures below are presented as PDF files. If you need a reader for these files, you should download the free Adobe Reader.

NOT FOR NAVIGATION. Please procure official charts for flight.
FAA instrument procedures published for use from 25 April 2019 at 0901Z to 23 May 2019 at 0900Z.

 
IAPs - Instrument Approach Procedures
RNAV (GPS) RWY 10   download (191KB)
RNAV (GPS) RWY 28   download (211KB)
NOTE: Special Take-Off Minimums/Departure Procedures apply   download (302KB)

Other nearby airports with instrument procedures:

15J - Cook County Airport (13 nm W)
KVAD - Moody Air Force Base (15 nm S)
KTMA - Henry Tift Myers Airport (19 nm NW)
KDQH - Douglas Municipal Airport (25 nm NE)
KHOE - Homerville Airport (25 nm E)
 
Loc | Ops | Rwys | IFR | FBO | Links
Com | Nav | Svcs | Stats | Notes
Area around 4J2 (Berrien County Airport)
 
Road maps at: MapQuest Bing Google
 
Aerial photo
WARNING: Photo may not be current or correct
Aerial photo of 4J2 (Berrien County Airport)
Photo courtesy of AirNav, LLC
Photo taken 01-Apr-2011
looking east.

Do you have a better or more recent aerial photo of Berrien County Airport that you would like to share? If so, please send us your photo.

 
Sectional chart

 
Airport distance calculator
Flying to Berrien County Airport? Find the distance to fly.

From to 4J2

Sunrise and sunset
Times for 25-Apr-2019
 Local
(UTC-4)
 Zulu
(UTC)
Morning civil twilight06:3010:30
Sunrise06:5510:55
Sunset20:0700:07
Evening civil twilight20:3200:32

Current date and time
Zulu (UTC)  25-Apr-2019 17:47:53
Local (UTC-4)  25-Apr-2019 13:47:53
 
METAR
KVAD 
15nm S 
251656Z AUTO 18010KT 10SM FEW095 FEW150 SCT180 BKN200 28/14 A2998 RMK AO2 SLP153 T02770143 $
KTMA 
19nm NW 
251735Z AUTO 19004G14KT 10SM CLR 27/12 A2997 RMK AO2 T02660121
KDQH 
25nm NE 
251735Z AUTO 19005KT 10SM CLR 27/14 A2999 RMK AO2 T02660138
KVLD 
27nm S 
251653Z 17008KT 10SM CLR 27/14 A2999 RMK AO2 SLP161 T02720144
KFZG 
28nm N 
251735Z AUTO 22005KT 10SM CLR 28/15 A2999 RMK AO2 T02770149 PWINO
TAF
KVAD 
15nm S 
251600Z 2516/2622 15006KT 9999 SCT200 QNH2996INS BECMG 2600/2601 18010G15KT 9999 BKN040 QNH2990INS BECMG 2605/2606 16006KT 9999 OVC015 QNH2990INS TEMPO 2606/2610 27015G25KT 3200 -TSRA OVC010CB BECMG 2612/2613 21009KT 8000 -SHRA OVC010 QNH2980INS BECMG 2614/2615 27012G18KT 9999 NSW BKN015 QNH2985INS BECMG 2620/2621 30015G25KT 9999 BKN045 QNH2984INS TX28/2520Z TN19/2608Z
NOTAMs
Click for the latest NOTAMs
NOTAMs are issued by the DoD/FAA and will open in a separate window not controlled by AirNav.

 

 
 

FBO, Fuel Providers, and Aircraft Ground Support

  
 Business Name 
 
 Contact 
 
 Services / Description 
 
Fuel Prices
 
Comments
  
Berrien County Airport 229-686-5421
no information available

If you are affiliated with Berrien County Airport and would like to show here your services, contact info, web link, logo, and more, click here
Jet A
SS $3.75 
 Updated 23-Apr-2019
 
   write
SS=Self service
Update Fuel Prices
 

Would you like to see your business listed on this page?

 If your business provides an interesting product or service to pilots, flight crews, aircraft, or users of the Berrien County Airport, you should consider listing it here.  To start the listing process, click on the button below
 
Add a business
 

Other Pages about Berrien County Airport

Update a link
 
Copyright © AirNav, LLC. All rights reserved. Privacy Policy  Contact